createdAt,value
2022-10-17T00:00:33.672Z,12.99
2022-10-17T00:03:36.552Z,12.94
2022-10-17T00:06:38.083Z,12.88
2022-10-17T00:09:43.725Z,12.79
2022-10-17T00:12:45.173Z,12.72
2022-10-17T00:15:46.607Z,12.68
2022-10-17T00:18:48.111Z,12.62
2022-10-17T00:21:49.799Z,12.60
2022-10-17T00:24:51.349Z,12.58
2022-10-17T00:27:52.817Z,12.57
2022-10-17T00:30:59.912Z,12.53
2022-10-17T00:34:01.556Z,12.47
2022-10-17T00:37:03.485Z,12.43
2022-10-17T00:40:06.431Z,12.41
2022-10-17T00:43:18.137Z,12.39
2022-10-17T00:46:21.395Z,12.41
2022-10-17T00:49:26.125Z,12.42
2022-10-17T00:52:30.202Z,12.39
2022-10-17T00:55:37.153Z,12.33
2022-10-17T00:58:38.783Z,12.27
2022-10-17T01:01:42.953Z,12.27
2022-10-17T01:04:47.577Z,12.27
2022-10-17T01:07:52.436Z,12.27
2022-10-17T01:11:18.660Z,12.24
2022-10-17T01:14:41.612Z,12.25
2022-10-17T01:18:08.528Z,12.16
2022-10-17T01:21:30.494Z,12.11
2022-10-17T01:24:50.989Z,12.13
2022-10-17T01:28:09.362Z,12.11
2022-10-17T01:31:13.921Z,12.05
2022-10-17T01:34:22.424Z,11.96
2022-10-17T01:37:31.907Z,11.97
2022-10-17T01:40:59.133Z,11.92
2022-10-17T01:44:38.132Z,11.93
2022-10-17T01:47:41.929Z,11.95
2022-10-17T01:50:54.368Z,11.91
2022-10-17T01:54:21.492Z,11.88
2022-10-17T01:57:29.442Z,11.81
2022-10-17T02:00:32.943Z,11.78
2022-10-17T02:03:35.558Z,11.79
2022-10-17T02:06:40.374Z,11.80
2022-10-17T02:09:45.893Z,11.77
2022-10-17T02:13:05.279Z,11.77
2022-10-17T02:16:28.845Z,11.74
2022-10-17T02:19:36.747Z,11.71
2022-10-17T02:22:47.423Z,11.70
2022-10-17T02:25:56.289Z,11.63
2022-10-17T02:29:09.067Z,11.66
2022-10-17T02:32:54.900Z,11.67
2022-10-17T02:36:03.060Z,11.62
2022-10-17T02:39:08.749Z,11.61
2022-10-17T02:42:13.048Z,11.55
2022-10-17T02:45:15.771Z,11.53
2022-10-17T02:48:38.743Z,11.50
2022-10-17T02:52:12.776Z,11.49
2022-10-17T02:55:20.403Z,11.48
2022-10-17T02:58:31.977Z,11.49
2022-10-17T03:01:36.047Z,11.48
2022-10-17T03:04:42.987Z,11.45
2022-10-17T03:07:44.686Z,11.43
2022-10-17T03:10:46.413Z,11.40
2022-10-17T03:13:48.229Z,11.38
2022-10-17T03:16:51.491Z,11.35
2022-10-17T03:19:53.360Z,11.28
2022-10-17T03:22:54.870Z,11.25
2022-10-17T03:25:56.730Z,11.27
2022-10-17T03:28:58.340Z,11.30
2022-10-17T03:32:01.117Z,11.32
2022-10-17T03:35:02.747Z,11.31
2022-10-17T03:38:04.569Z,11.34
2022-10-17T03:41:06.792Z,11.33
2022-10-17T03:44:08.307Z,11.31
2022-10-17T03:47:11.927Z,11.28
2022-10-17T03:50:15.863Z,11.27
2022-10-17T03:53:18.605Z,11.23
2022-10-17T03:56:22.967Z,11.17
2022-10-17T03:59:53.835Z,11.13
2022-10-17T04:02:58.045Z,11.12
2022-10-17T04:06:05.043Z,11.13
2022-10-17T04:09:09.956Z,11.11
2022-10-17T04:12:31.925Z,11.10
2022-10-17T04:15:36.287Z,11.12
2022-10-17T04:18:38.191Z,11.11
2022-10-17T04:21:39.692Z,11.15
2022-10-17T04:24:42.790Z,11.20
2022-10-17T04:28:00.521Z,11.20
2022-10-17T04:31:07.130Z,11.24
2022-10-17T04:34:17.133Z,11.20
2022-10-17T04:37:18.899Z,11.23
2022-10-17T04:40:21.781Z,11.24
2022-10-17T04:43:25.908Z,11.14
2022-10-17T04:46:27.744Z,11.11
2022-10-17T04:49:29.285Z,11.09
2022-10-17T04:52:39.124Z,11.01
2022-10-17T04:55:42.366Z,11.01
2022-10-17T04:58:45.506Z,10.99
2022-10-17T05:01:48.992Z,10.94
2022-10-17T05:04:50.635Z,10.93
2022-10-17T05:07:52.336Z,10.94
2022-10-17T05:10:57.129Z,10.96
2022-10-17T05:14:01.049Z,10.96
2022-10-17T05:17:02.725Z,10.94
2022-10-17T05:20:05.459Z,10.91
2022-10-17T05:23:08.342Z,10.84
2022-10-17T05:26:14.956Z,10.92
2022-10-17T05:29:16.569Z,10.95
2022-10-17T05:32:23.004Z,10.95
2022-10-17T05:35:24.831Z,10.94
2022-10-17T05:38:28.113Z,10.98
2022-10-17T05:41:29.915Z,11.03
2022-10-17T05:44:31.424Z,11.04
2022-10-17T05:47:34.913Z,11.05
2022-10-17T05:50:36.792Z,11.02
2022-10-17T05:53:50.780Z,11.03
2022-10-17T05:56:58.184Z,11.00
2022-10-17T06:00:05.430Z,10.97
2022-10-17T06:03:15.615Z,11.08
2022-10-17T06:06:19.315Z,11.12
2022-10-17T06:09:23.069Z,11.16
2022-10-17T06:12:27.389Z,11.23
2022-10-17T06:15:29.454Z,11.26
2022-10-17T06:18:36.584Z,11.29
2022-10-17T06:21:38.894Z,11.35
2022-10-17T06:25:01.931Z,11.47
2022-10-17T06:28:04.753Z,11.54
2022-10-17T06:31:08.552Z,11.62
2022-10-17T06:34:10.976Z,11.70
2022-10-17T06:37:14.062Z,11.78
2022-10-17T06:40:17.204Z,11.90
2022-10-17T06:43:21.397Z,12.04
2022-10-17T06:46:53.315Z,12.21
2022-10-17T06:49:55.936Z,12.32
2022-10-17T06:53:06.260Z,12.43
2022-10-17T06:56:22.864Z,12.61
2022-10-17T06:59:41.882Z,12.76
2022-10-17T07:02:46.361Z,12.89
2022-10-17T07:05:52.248Z,12.99
2022-10-17T07:08:55.647Z,13.10
2022-10-17T07:11:57.593Z,13.29
2022-10-17T07:14:59.107Z,13.47
2022-10-17T07:18:00.583Z,13.60
2022-10-17T07:21:03.957Z,13.69
2022-10-17T07:24:07.451Z,13.81
2022-10-17T07:27:09.273Z,13.98
2022-10-17T07:30:11.317Z,14.17
2022-10-17T07:33:26.424Z,14.35
2022-10-17T07:36:28.039Z,14.52
2022-10-17T07:39:30.897Z,14.64
2022-10-17T07:42:36.111Z,14.81
2022-10-17T07:45:37.972Z,14.97
2022-10-17T07:48:40.160Z,15.20
2022-10-17T07:51:42.988Z,15.35
2022-10-17T07:54:52.577Z,15.53
2022-10-17T07:57:57.092Z,15.70
2022-10-17T08:01:09.427Z,15.75
2022-10-17T08:04:13.837Z,15.86
2022-10-17T08:07:22.987Z,15.99
2022-10-17T08:10:29.718Z,16.12
2022-10-17T08:13:38.678Z,16.17
2022-10-17T08:16:41.032Z,16.25
2022-10-17T08:19:42.698Z,16.34
2022-10-17T08:22:51.720Z,16.42
2022-10-17T08:25:53.313Z,16.41
2022-10-17T08:28:55.111Z,16.54
2022-10-17T08:32:00.227Z,16.61
2022-10-17T08:35:03.578Z,16.83
2022-10-17T08:38:05.180Z,17.00
2022-10-17T08:41:15.139Z,17.17
2022-10-17T08:44:46.269Z,17.31
2022-10-17T08:47:56.632Z,17.42
2022-10-17T08:51:30.464Z,17.56
2022-10-17T08:54:49.761Z,17.68
2022-10-17T08:58:22.294Z,17.85
2022-10-17T09:01:51.087Z,18.02
2022-10-17T09:05:26.565Z,18.20
2022-10-17T09:08:33.884Z,18.26
2022-10-17T09:11:47.169Z,18.42
2022-10-17T09:15:11.115Z,18.48
2022-10-17T09:18:55.212Z,18.53
2022-10-17T09:22:23.035Z,18.67
2022-10-17T09:25:35.774Z,18.50
2022-10-17T09:28:40.449Z,18.66
2022-10-17T09:31:54.171Z,18.65
2022-10-17T09:34:58.357Z,18.84
2022-10-17T09:38:25.109Z,19.02
2022-10-17T09:41:44.841Z,19.12
2022-10-17T09:44:57.076Z,19.38
2022-10-17T09:48:21.521Z,19.53
2022-10-17T09:51:26.491Z,19.63
2022-10-17T09:54:40.231Z,19.77
2022-10-17T09:57:52.470Z,19.89
2022-10-17T10:01:24.817Z,20.14
2022-10-17T10:04:30.465Z,20.26
2022-10-17T10:07:42.043Z,20.52
2022-10-17T10:10:45.249Z,20.54
2022-10-17T10:13:49.172Z,20.91
2022-10-17T10:16:53.530Z,21.06
2022-10-17T10:19:55.516Z,21.18
2022-10-17T10:23:19.474Z,21.27
2022-10-17T10:26:25.772Z,21.27
2022-10-17T10:29:28.903Z,21.34
2022-10-17T10:32:36.911Z,21.52
2022-10-17T10:35:38.685Z,21.75
2022-10-17T10:38:42.499Z,21.85
2022-10-17T10:41:50.429Z,21.97
2022-10-17T10:44:53.937Z,22.05
2022-10-17T10:47:58.848Z,22.07
2022-10-17T10:51:16.952Z,22.11
2022-10-17T10:54:50.731Z,22.15
2022-10-17T10:57:56.531Z,22.12
2022-10-17T11:01:05.090Z,22.14
2022-10-17T11:04:33.157Z,22.16
2022-10-17T11:07:40.441Z,22.17
2022-10-17T11:11:04.899Z,22.14
2022-10-17T11:14:21.203Z,22.17
2022-10-17T11:17:29.507Z,22.16
2022-10-17T11:20:58.036Z,22.19
2022-10-17T11:24:19.308Z,22.22
2022-10-17T11:27:20.780Z,22.28
2022-10-17T11:30:26.817Z,22.26
2022-10-17T11:33:45.943Z,22.23
2022-10-17T11:36:52.743Z,22.29
2022-10-17T11:39:59.916Z,22.28
2022-10-17T11:43:37.727Z,22.29
2022-10-17T11:46:42.456Z,22.37
2022-10-17T11:51:59.791Z,22.43
2022-10-17T11:53:27.341Z,22.48
2022-10-17T11:56:46.596Z,22.46
2022-10-17T11:59:59.769Z,22.49
2022-10-17T12:03:18.895Z,22.56
2022-10-17T12:06:35.367Z,22.61
2022-10-17T12:10:02.500Z,22.66
2022-10-17T12:13:28.592Z,22.68
2022-10-17T12:16:30.056Z,22.70
2022-10-17T12:19:40.530Z,22.78
2022-10-17T12:22:49.268Z,22.77
2022-10-17T12:25:53.699Z,22.79
2022-10-17T12:28:57.331Z,22.77
2022-10-17T12:32:12.119Z,22.92
2022-10-17T12:35:21.187Z,23.03
2022-10-17T12:38:27.654Z,23.06
2022-10-17T12:41:38.265Z,23.05
2022-10-17T12:44:42.377Z,23.09
2022-10-17T12:47:43.850Z,23.12
2022-10-17T12:54:47.056Z,23.20
2022-10-17T12:58:11.735Z,23.20
2022-10-17T13:01:24.091Z,23.28
2022-10-17T13:04:28.009Z,23.24
2022-10-17T13:07:29.994Z,23.23
2022-10-17T13:10:35.437Z,23.20
2022-10-17T13:13:43.262Z,23.23
2022-10-17T13:16:58.455Z,23.30
2022-10-17T13:20:00.593Z,23.35
2022-10-17T13:23:02.275Z,23.45
2022-10-17T13:26:15.225Z,23.39
2022-10-17T13:29:16.814Z,23.36
2022-10-17T13:32:18.284Z,23.37
2022-10-17T13:35:41.998Z,23.38
2022-10-17T13:38:49.261Z,23.35
2022-10-17T13:41:53.961Z,23.39
2022-10-17T13:44:57.097Z,23.46
2022-10-17T13:48:03.141Z,23.50
2022-10-17T13:51:10.346Z,23.62
2022-10-17T13:54:40.110Z,23.70
2022-10-17T13:57:41.664Z,23.60
2022-10-17T14:00:44.905Z,23.59
2022-10-17T14:03:49.001Z,23.49
2022-10-17T14:06:52.770Z,23.50
2022-10-17T14:09:54.341Z,23.57
2022-10-17T14:12:56.899Z,23.50
2022-10-17T14:16:01.502Z,23.54
2022-10-17T14:19:04.253Z,23.56
2022-10-17T14:22:22.531Z,23.61
2022-10-17T14:25:27.077Z,23.69
2022-10-17T14:28:29.044Z,23.85
2022-10-17T14:31:35.575Z,24.14
2022-10-17T14:34:40.596Z,25.15
2022-10-17T14:37:48.740Z,26.15
2022-10-17T14:40:52.521Z,26.51
2022-10-17T14:44:03.520Z,25.78
2022-10-17T14:47:38.041Z,24.97
2022-10-17T14:50:32.177Z,24.37
2022-10-17T14:53:33.872Z,24.13
2022-10-17T14:56:41.473Z,24.04
2022-10-17T14:59:53.832Z,23.91
2022-10-17T15:02:56.422Z,23.84
2022-10-17T15:05:58.444Z,23.75
2022-10-17T15:09:00.669Z,23.67
2022-10-17T15:12:04.137Z,23.69
2022-10-17T15:15:06.156Z,23.72
2022-10-17T15:18:11.061Z,23.62
2022-10-17T15:21:33.272Z,23.51
2022-10-17T15:24:35.205Z,23.47
2022-10-17T15:27:36.936Z,23.42
2022-10-17T15:30:53.425Z,23.33
2022-10-17T15:33:55.826Z,23.36
2022-10-17T15:36:58.597Z,23.34
2022-10-17T15:40:00.396Z,23.41
2022-10-17T15:43:01.874Z,23.60
2022-10-17T15:46:03.831Z,23.76
2022-10-17T15:49:09.838Z,23.21
2022-10-17T15:52:11.405Z,22.59
2022-10-17T15:55:13.202Z,22.22
2022-10-17T15:58:19.232Z,21.82
2022-10-17T16:01:26.310Z,21.58
2022-10-17T16:04:29.245Z,21.30
2022-10-17T16:07:30.930Z,21.04
2022-10-17T16:10:33.538Z,20.77
2022-10-17T16:13:34.998Z,20.52
2022-10-17T16:16:44.035Z,20.29
2022-10-17T16:19:45.815Z,20.14
2022-10-17T16:22:48.617Z,19.92
2022-10-17T16:25:50.185Z,19.61
2022-10-17T16:28:51.730Z,19.41
2022-10-17T16:31:53.272Z,19.20
2022-10-17T16:34:54.837Z,19.09
2022-10-17T16:37:57.780Z,18.87
2022-10-17T16:40:59.232Z,18.68
2022-10-17T16:44:03.925Z,18.53
2022-10-17T16:47:05.375Z,18.39
2022-10-17T16:50:07.326Z,18.28
2022-10-17T16:53:08.812Z,18.19
2022-10-17T16:56:13.004Z,18.07
2022-10-17T16:59:14.456Z,17.97
2022-10-17T17:02:18.911Z,17.88
2022-10-17T17:05:22.985Z,17.78
2022-10-17T17:08:24.487Z,17.68
2022-10-17T17:11:27.621Z,17.57
2022-10-17T17:14:29.067Z,17.49
2022-10-17T17:17:48.118Z,17.24
2022-10-17T17:20:50.901Z,17.23
2022-10-17T17:23:52.696Z,17.18
2022-10-17T17:26:55.628Z,17.06
2022-10-17T17:29:57.151Z,16.91
2022-10-17T17:32:59.977Z,16.86
2022-10-17T17:36:02.015Z,16.81
2022-10-17T17:39:07.587Z,16.70
2022-10-17T17:42:09.158Z,16.58
2022-10-17T17:45:16.841Z,16.48
2022-10-17T17:48:42.453Z,16.30
2022-10-17T17:51:46.551Z,16.34
2022-10-17T17:54:48.142Z,16.32
2022-10-17T17:57:49.853Z,16.26
2022-10-17T18:00:51.468Z,16.21
2022-10-17T18:03:56.624Z,16.14
2022-10-17T18:06:58.090Z,15.98
2022-10-17T18:09:59.845Z,15.89
2022-10-17T18:13:01.449Z,15.90
2022-10-17T18:16:04.187Z,15.78
2022-10-17T18:19:08.794Z,15.80
2022-10-17T18:22:10.672Z,15.73
2022-10-17T18:25:12.127Z,15.81
2022-10-17T18:28:13.612Z,15.77
2022-10-17T18:31:24.311Z,15.53
2022-10-17T18:34:27.217Z,15.36
2022-10-17T18:37:28.679Z,15.33
2022-10-17T18:40:30.219Z,15.29
2022-10-17T18:43:36.686Z,15.24
2022-10-17T18:46:42.737Z,15.30
2022-10-17T18:49:44.325Z,15.28
2022-10-17T18:52:47.827Z,15.24
2022-10-17T18:55:51.221Z,15.22
2022-10-17T18:58:53.536Z,15.19
2022-10-17T19:01:55.357Z,15.12
2022-10-17T19:04:57.128Z,14.99
2022-10-17T19:07:58.668Z,14.99
2022-10-17T19:11:15.132Z,14.79
2022-10-17T19:14:16.851Z,14.73
2022-10-17T19:17:19.315Z,14.75
2022-10-17T19:20:20.828Z,14.68
2022-10-17T19:23:22.340Z,14.68
2022-10-17T19:26:24.896Z,14.56
2022-10-17T19:29:28.152Z,14.47
2022-10-17T19:32:31.081Z,14.43
2022-10-17T19:35:33.918Z,14.34
2022-10-17T19:38:48.965Z,14.29
2022-10-17T19:41:53.683Z,14.32
2022-10-17T19:44:55.133Z,14.35
2022-10-17T19:47:56.644Z,14.30
2022-10-17T19:50:58.551Z,14.22
2022-10-17T19:54:01.198Z,14.14
2022-10-17T19:57:06.778Z,14.10
2022-10-17T20:00:11.637Z,14.10
2022-10-17T20:03:13.138Z,14.13
2022-10-17T20:06:15.461Z,14.07
2022-10-17T20:09:17.326Z,13.99
2022-10-17T20:12:19.206Z,13.96
2022-10-17T20:15:20.681Z,13.95
2022-10-17T20:18:22.721Z,13.91
2022-10-17T20:21:27.358Z,13.88
2022-10-17T20:24:28.908Z,13.89
2022-10-17T20:27:30.429Z,13.90
2022-10-17T20:30:31.955Z,13.86
2022-10-17T20:33:33.438Z,13.85
2022-10-17T20:36:37.421Z,13.80
2022-10-17T20:39:39.159Z,13.80
2022-10-17T20:42:40.629Z,13.79
2022-10-17T20:45:50.839Z,13.75
2022-10-17T20:48:54.714Z,13.66
2022-10-17T20:51:56.250Z,13.63
2022-10-17T20:54:57.736Z,13.57
2022-10-17T20:57:59.556Z,13.61
2022-10-17T21:01:06.402Z,13.54
2022-10-17T21:04:40.308Z,13.58
2022-10-17T21:07:30.265Z,13.60
2022-10-17T21:10:35.415Z,13.63
2022-10-17T21:13:37.917Z,13.59
2022-10-17T21:16:41.231Z,13.51
2022-10-17T21:19:42.708Z,13.48
2022-10-17T21:22:44.277Z,13.50
2022-10-17T21:25:45.754Z,13.45
2022-10-17T21:28:48.593Z,13.43
2022-10-17T21:31:50.409Z,13.38
2022-10-17T21:34:51.930Z,13.46
2022-10-17T21:37:53.409Z,13.51
2022-10-17T21:40:56.081Z,13.52
2022-10-17T21:44:01.202Z,13.52
2022-10-17T21:47:02.853Z,13.56
2022-10-17T21:50:04.647Z,13.64
2022-10-17T21:53:08.871Z,13.71
2022-10-17T21:56:13.017Z,13.75
2022-10-17T21:59:14.932Z,13.77
2022-10-17T22:02:16.496Z,13.76
2022-10-17T22:05:18.048Z,13.71
2022-10-17T22:08:19.620Z,13.72
2022-10-17T22:11:24.041Z,13.82
2022-10-17T22:14:27.061Z,13.93
2022-10-17T22:17:28.767Z,14.01
2022-10-17T22:20:30.517Z,14.03
2022-10-17T22:23:32.384Z,14.01
2022-10-17T22:26:35.817Z,14.03
2022-10-17T22:29:37.408Z,14.05
2022-10-17T22:32:38.960Z,14.01
2022-10-17T22:35:42.136Z,13.92
2022-10-17T22:38:43.633Z,13.85
2022-10-17T22:41:45.196Z,13.84
2022-10-17T22:44:47.769Z,13.84
2022-10-17T22:47:49.316Z,13.79
2022-10-17T22:50:52.440Z,13.79
2022-10-17T22:53:53.920Z,13.82
2022-10-17T22:56:55.371Z,13.82
2022-10-17T22:59:56.857Z,13.86
2022-10-17T23:02:58.369Z,13.86
2022-10-17T23:06:00.691Z,13.95
2022-10-17T23:09:02.488Z,14.00
2022-10-17T23:12:04.488Z,14.06
2022-10-17T23:15:06.427Z,14.00
2022-10-17T23:18:09.658Z,14.06
2022-10-17T23:21:11.861Z,14.14
2022-10-17T23:24:13.361Z,14.18
2022-10-17T23:27:14.844Z,14.18
2022-10-17T23:30:16.703Z,14.16
2022-10-17T23:33:18.213Z,14.17
2022-10-17T23:36:21.165Z,14.18
2022-10-17T23:39:22.853Z,14.20
2022-10-17T23:42:24.440Z,14.25
2022-10-17T23:45:26.024Z,14.29
2022-10-17T23:48:28.135Z,14.36
2022-10-17T23:51:29.760Z,14.39
2022-10-17T23:54:31.727Z,14.37
2022-10-17T23:57:33.698Z,14.43
